Latest Coastal Weather Observations for Kingfish B

IDV60701

Issued at 9:41 pm EST Sunday 20 August 2017 (issued every 10 minutes, with the page automatically refreshed every 10 minutes)

About coastal observations | Map of coastal stations | Coastal observations for VIC | Marine services | Other Formats
Station Details ID: 400139 Name: KINGFISH B (PLATFORM) Lat: -38.60 Lon: 148.19 Height: 31.4 m
Data from the previous 72 hours. | See also: Recent months for locations in Victoria
Date/Time
EST
Temp
°C
Wind Pressure Rain since
9am
mm
Weather Cloud Vis
km
Sea
Height
m
Swell
Dir  Spd
kts
Gust
kts
hPa Trend Height
m
Period
s
Dir
20/08:30pm 10.6 ENE 3 5 1020.0 - - - - - - - - -
20/08:20pm 10.5 ENE 2 5 1020.1 - - - - - - - - -
20/08:10pm 10.6 NE 2 3 1020.2 - - - - - - - - -
20/08:00pm 10.6 NE 3 4 1020.4 - - - - - - - - -
20/07:50pm 10.6 NE 2 4 1020.5 - - - - - - - - -
20/07:40pm 10.6 NE 1 4 1020.5 - - - - - - - - -
20/07:30pm 10.7 NE 1 5 1020.6 - - - - - - - - -
20/07:20pm 10.9 ENE 1 4 1020.6 - - - - - - - - -
20/07:10pm 11.1 NE 2 3 1020.7 - - - - - - - - -
20/07:00pm 11.5 NNE 1 4 1020.6 - - - - - - - - -
20/06:50pm 11.9 N 2 4 1020.7 - - - - - - - - -
20/06:40pm 11.7 NNW 3 5 1020.7 - - - - - - - - -
20/06:30pm 11.9 N 1 3 1020.6 - - - - - - - - -
20/06:20pm 12.4 NNW 2 3 1020.7 - - - - - - - - -
20/06:10pm 12.3 NNW 3 4 1020.6 - - - - - - - - -
20/06:00pm 12.5 NNW 2 4 1020.6 - - - - - - - - -
20/05:50pm 12.6 NNW 2 3 1020.6 - - - - - - - - -
20/05:40pm 12.6 NW 3 5 1020.6 - - - - - - - - -
20/05:30pm 13.0 NW 2 4 1020.6 - - - - - - - - -
20/05:20pm 12.8 NW 3 4 1020.5 - - - - - - - - -
20/05:10pm 12.7 NNW 3 4 1020.4 - - - - - - - - -
20/05:00pm 12.4 NW 3 4 1020.4 - - - - - - - - -
20/04:50pm 12.5 NW 4 5 1020.4 - - - - - - - - -
20/04:40pm 12.5 WNW 3 5 1020.5 - - - - - - - - -
20/04:30pm 12.7 WNW 3 5 1020.6 - - - - - - - - -
20/04:20pm 12.7 WNW 4 5 1020.6 - - - - - - - - -
20/04:10pm 12.5 WNW 4 5 1020.8 - - - - - - - - -
20/04:00pm 12.2 WNW 4 6 1020.9 - - - - - - - - -
20/03:50pm 12.1 WNW 6 8 1021.0 - - - - - - - - -
20/03:40pm 12.1 WNW 6 7 1021.1 - - - - - - - - -
20/03:30pm 12.0 W 6 9 1021.2 - - - - - - - - -
20/03:20pm 12.1 W 7 9 1021.3 - - - - - - - - -
20/03:10pm 12.1 WNW 7 9 1021.4 - - - - - - - - -
20/03:00pm 12.1 W 8 9 1021.4 - - - - - - - - -
20/02:50pm 12.1 W 8 11 1021.5 - - - - - - - - -
20/02:40pm 12.1 W 9 12 1021.7 - - - - - - - - -
20/02:30pm 12.0 W 9 12 1021.6 - - - - - - - - -
20/02:20pm 12.0 W 8 11 1021.5 - - - - - - - - -
20/02:10pm 12.1 W 8 11 1021.6 - - - - - - - - -
20/02:00pm 12.1 W 8 12 1021.7 - - - - - - - - -
20/01:50pm 12.1 W 8 10 1021.8 - - - - - - - - -
20/01:40pm 12.0 W 8 11 1021.8 - - - - - - - - -
20/01:30pm 12.2 W 9 11 1021.8 - - - - - - - - -
20/01:20pm 12.4 W 9 13 1021.9 - - - - - - - - -
20/01:10pm 12.5 W 9 13 1022.0 - - - - - - - - -
20/01:00pm 12.5 W 9 11 1022.1 - - - - - - - - -
20/12:50pm 12.4 W 10 12 1022.2 - - - - - - - - -
20/12:40pm 12.5 W 10 12 1022.3 - - - - - - - - -
20/12:30pm 12.5 W 10 13 1022.4 - - - - - - - - -
20/12:20pm 12.7 W 11 13 1022.6 - - - - - - - - -
20/12:10pm 12.9 W 10 14 1022.7 - - - - - - - - -
20/12:00pm 13.0 W 11 13 1022.9 - - - - - - - - -
20/11:50am 12.9 W 13 15 1023.1 - - - - - - - - -
20/11:40am 13.1 W 12 14 1023.3 - - - - - - - - -
20/11:30am 12.9 W 11 16 1023.4 - - - - - - - - -
20/11:20am 12.6 WSW 8 10 1023.6 - - - - - - - - -
20/11:10am 12.7 WSW 9 11 1023.9 - - - - - - - - -
20/11:00am 13.0 SW 10 14 1024.1 - - - - - - - - -
20/10:50am 13.2 WSW 11 14 1024.2 - - - - - - - - -
20/10:40am 13.0 WSW 11 15 1024.4 - - - - - - - - -
20/10:30am 13.3 WSW 12 15 1024.6 - - - - - - - - -
20/10:20am 13.2 WSW 12 15 1024.7 - - - - - - - - -
20/10:10am 13.0 SW 12 16 1024.8 - - - - - - - - -
20/10:00am 13.0 SW 13 16 1024.9 - - - - - - - - -
20/09:50am 12.8 SW 12 15 1025.2 - - - - - - - - -
20/09:40am 12.5 SW 14 17 1025.4 - - - - - - - - -
20/09:30am 12.7 SW 15 17 1025.5 - - - - - - - - -
20/09:20am 12.7 SW 14 17 1025.3 - - - - - - - - -
20/09:10am 12.6 SW 15 19 1025.3 - - - - - - - - -
20/09:00am 12.7 SW 15 19 1025.1 - - - - - - - - -
20/08:50am 12.5 SW 15 18 1025.2 - - - - - - - - -
20/08:40am 12.0 SW 12 17 1025.1 - - - - - - - - -
20/08:30am 12.2 SW 11 13 1025.1 - - - - - - - - -
20/08:20am 12.5 SW 12 16 1025.2 - - - - - - - - -
20/08:10am 12.2 SW 12 15 1025.2 - - - - - - - - -
20/08:00am 11.5 SW 11 16 1025.2 - - - - - - - - -
20/07:50am 12.0 SW 12 15 1025.2 - - - - - - - - -
20/07:40am 11.7 SW 13 16 1025.2 - - - - - - - - -
20/07:30am 11.1 SW 14 17 1025.4 - - - - - - - - -
20/07:20am 11.4 SW 17 20 1025.1 - - - - - - - - -
20/07:10am 11.4 WSW 16 20 1025.1 - - - - - - - - -
20/07:00am 11.2 WSW 13 18 1025.0 - - - - - - - - -
20/06:50am 11.1 WSW 12 19 1025.1 - - - - - - - - -
20/06:40am 11.1 SW 13 18 1025.2 - - - - - - - - -
20/06:30am 11.0 SW 17 22 1025.3 - - - - - - - - -
20/06:20am 11.1 SW 19 23 1025.2 - - - - - - - - -
20/06:10am 10.8 SW 15 22 1025.1 - - - - - - - - -
20/06:00am 10.7 SW 16 19 1025.2 - - - - - - - - -
20/05:50am 10.9 SW 17 20 1025.1 - - - - - - - - -
20/05:40am 10.9 SW 18 20 1024.9 - - - - - - - - -
20/05:30am 10.9 WSW 18 24 1024.4 - - - - - - - - -
20/05:20am 10.9 SW 16 19 1024.6 - - - - - - - - -
20/05:10am 11.0 SW 17 21 1024.6 - - - - - - - - -
20/05:00am 10.9 SW 15 19 1024.3 - - - - - - - - -
20/04:50am 11.1 SW 17 22 1024.4 - - - - - - - - -
20/04:40am 11.1 SW 19 24 1024.5 - - - - - - - - -
20/04:30am 11.1 SW 19 23 1024.5 - - - - - - - - -
20/04:20am 11.1 SW 17 21 1024.4 - - - - - - - - -
20/04:10am 11.0 SW 18 21 1024.4 - - - - - - - - -
20/04:00am 11.1 SW 18 21 1024.4 - - - - - - - - -
20/03:50am 11.1 SW 18 21 1024.1 - - - - - - - - -
20/03:40am 10.9 SW 14 18 1024.2 - - - - - - - - -
20/03:30am 11.0 SW 16 20 1024.2 - - - - - - - - -
20/03:20am 11.2 SW 18 22 1024.1 - - - - - - - - -
20/03:10am 11.2 SW 18 20 1024.0 - - - - - - - - -
20/03:00am 11.2 SW 17 20 1023.8 - - - - - - - - -
20/02:50am 11.2 SW 17 20 1023.8 - - - - - - - - -
20/02:40am 11.1 WSW 17 21 1023.7 - - - - - - - - -
20/02:30am 11.1 WSW 17 20 1023.8 - - - - - - - - -
20/02:20am 11.1 SW 17 20 1023.9 - - - - - - - - -
20/02:10am 11.1 SW 15 19 1024.1 - - - - - - - - -
20/02:00am 11.1 SW 15 18 1024.3 - - - - - - - - -
20/01:50am 11.1 SW 15 19 1024.4 - - - - - - - - -
20/01:40am 11.2 SW 14 17 1024.4 - - - - - - - - -
20/01:30am 11.3 SW 14 18 1024.3 - - - - - - - - -
20/01:20am 11.2 SW 15 17 1024.2 - - - - - - - - -
20/01:10am 11.2 SW 15 17 1024.3 - - - - - - - - -
20/01:00am 11.2 SW 17 20 1024.3 - - - - - - - - -
20/12:50am 11.4 SW 17 20 1024.4 - - - - - - - - -
20/12:40am 11.4 SW 16 19 1024.5 - - - - - - - - -
20/12:30am 11.3 SW 16 19 1024.5 - - - - - - - - -
20/12:20am 11.4 SW 16 20 1024.5 - - - - - - - - -
20/12:10am 11.4 SW 15 17 1024.3 - - - - - - - - -
20/12:00am 11.4 SW 15 18 1024.5 - - - - - - - - -
 
Date/Time
EST
Temp
°C
Wind Pressure Rain since
9am
mm
Weather Cloud Vis
km
Sea
Height
m
Swell
Dir  Spd
kts
Gust
kts
hPa Trend Height
m
Period
s
Dir
19/11:50pm 11.4 SW 16 19 1024.6 - - - - - - - - -
19/11:40pm 11.2 SW 16 19 1024.7 - - - - - - - - -
19/11:30pm 11.3 SW 17 20 1024.7 - - - - - - - - -
19/11:20pm 11.2 SW 17 21 1024.8 - - - - - - - - -
19/11:10pm 11.1 SW 16 20 1024.9 - - - - - - - - -
19/11:00pm 11.1 SSW 18 19 1024.9 - - - - - - - - -
19/10:50pm 11.3 SW 18 20 1024.8 - - - - - - - - -
19/10:40pm 11.1 SW 17 21 1024.7 - - - - - - - - -
19/10:30pm 11.1 SSW 18 21 1024.9 - - - - - - - - -
19/10:20pm 11.4 SW 18 21 1024.8 - - - - - - - - -
19/10:10pm 11.4 SW 19 22 1024.7 - - - - - - - - -
19/10:00pm 11.5 SW 17 20 1024.6 - - - - - - - - -
19/09:50pm 11.3 SW 19 21 1024.9 - - - - - - - - -
19/09:40pm 11.2 SW 20 24 1024.9 - - - - - - - - -
19/09:30pm 11.3 SW 20 22 1024.9 - - - - - - - - -
19/09:20pm 11.4 SW 20 23 1024.9 - - - - - - - - -
19/09:10pm 11.3 SW 22 27 1024.8 - - - - - - - - -
19/09:00pm 11.2 SW 20 24 1024.9 - - - - - - - - -
19/08:50pm 10.8 SW 19 24 1024.9 - - - - - - - - -
19/08:40pm 10.5 SSW 17 20 1024.9 - - - - - - - - -
19/08:30pm 10.5 SSW 18 21 1024.9 - - - - - - - - -
19/08:20pm 10.5 SSW 20 24 1025.0 - - - - - - - - -
19/08:10pm 10.4 SSW 20 23 1025.1 - - - - - - - - -
19/08:00pm 10.5 SSW 20 24 1025.2 - - - - - - - - -
19/07:50pm 10.6 SW 21 24 1025.1 - - - - - - - - -
19/07:40pm 10.4 SW 21 25 1025.2 - - - - - - - - -
19/07:30pm 10.3 SW 19 24 1025.1 - - - - - - - - -
19/07:10pm 9.9 SSW 21 24 1025.3 - - - - - - - - -
19/07:00pm 9.8 SSW 23 28 1025.5 - - - - - - - - -
19/06:40pm 10.1 SW 23 27 1025.3 - - - - - - - - -
19/06:30pm 9.9 SSW 23 29 1025.6 - - - - - - - - -
19/06:20pm 9.9 SSW 25 31 1025.6 - - - - - - - - -
19/06:10pm 10.0 SSW 24 29 1025.5 - - - - - - - - -
19/06:00pm 10.2 SW 25 28 1025.4 - - - - - - - - -
19/05:50pm 10.1 SSW 25 30 1025.5 - - - - - - - - -
19/05:40pm 10.5 SW 25 29 1025.2 - - - - - - - - -
19/05:30pm 10.8 SW 23 28 1024.6 - - - - - - - - -
19/05:20pm 10.8 SW 26 31 1024.7 - - - - - - - - -
19/05:10pm 10.5 SW 21 26 1024.7 - - - - - - - - -
19/05:00pm 10.6 SW 23 29 1024.7 - - - - - - - - -
19/04:50pm 10.7 SW 24 29 1024.8 - - - - - - - - -
19/04:40pm 10.8 SW 24 29 1024.3 - - - - - - - - -
19/04:30pm 10.6 SW 22 28 1024.4 - - - - - - - - -
19/04:20pm 10.6 SW 22 27 1023.9 - - - - - - - - -
19/04:10pm 10.8 SW 23 30 1023.7 - - - - - - - - -
19/04:00pm 10.7 SW 18 22 1023.8 - - - - - - - - -
19/03:50pm 10.9 WSW 21 26 1023.5 - - - - - - - - -
19/03:40pm 11.0 SW 22 29 1023.6 - - - - - - - - -
19/03:30pm 11.0 SW 21 26 1024.0 - - - - - - - - -
19/03:20pm 11.0 SW 17 22 1023.6 - - - - - - - - -
19/03:10pm 10.8 SW 17 21 1023.8 - - - - - - - - -
19/03:00pm 10.7 SW 17 21 1023.9 - - - - - - - - -
19/02:50pm 10.7 SW 19 25 1023.9 - - - - - - - - -
19/02:40pm 11.0 SW 20 26 1023.7 - - - - - - - - -
19/02:30pm 10.7 SW 18 24 1023.7 - - - - - - - - -
19/02:20pm 10.5 SW 19 23 1023.9 - - - - - - - - -
19/02:10pm 10.3 SW 20 24 1023.9 - - - - - - - - -
19/02:00pm 10.4 SW 18 22 1023.8 - - - - - - - - -
19/01:50pm 10.7 SW 21 24 1023.7 - - - - - - - - -
19/01:40pm 10.3 SW 20 25 1023.8 - - - - - - - - -
19/01:30pm 10.2 SW 20 25 1023.7 - - - - - - - - -
19/01:20pm 10.4 SSW 21 25 1023.8 - - - - - - - - -
19/01:10pm 10.9 SW 20 24 1023.5 - - - - - - - - -
19/01:00pm 10.7 SW 19 25 1023.6 - - - - - - - - -
19/12:50pm 10.6 SW 19 25 1023.6 - - - - - - - - -
19/12:40pm 10.4 SW 19 24 1023.5 - - - - - - - - -
19/12:30pm 10.3 SSW 20 24 1023.6 - - - - - - - - -
19/12:20pm 10.4 SW 20 24 1023.5 - - - - - - - - -
19/12:10pm 10.1 SSW 20 23 1023.6 - - - - - - - - -
19/12:00pm 10.2 SSW 19 23 1023.5 - - - - - - - - -
19/11:50am 10.1 SSW 19 22 1023.5 - - - - - - - - -
19/11:40am 10.2 SSW 18 23 1023.4 - - - - - - - - -
19/11:30am 10.6 SW 19 24 1023.3 - - - - - - - - -
19/11:20am 10.4 SW 19 23 1023.4 - - - - - - - - -
19/11:10am 10.3 SSW 18 24 1023.5 - - - - - - - - -
19/11:00am 10.4 SSW 18 22 1023.5 - - - - - - - - -
19/10:50am 10.0 SSW 18 23 1023.5 - - - - - - - - -
19/10:40am 9.9 SSW 19 24 1023.6 - - - - - - - - -
19/10:30am 9.7 SSW 18 22 1023.6 - - - - - - - - -
19/10:20am 9.7 SSW 20 24 1023.6 - - - - - - - - -
19/10:10am 9.8 SSW 19 23 1023.6 - - - - - - - - -
19/10:00am 9.8 SSW 19 25 1023.5 - - - - - - - - -
19/09:50am 9.7 SSW 19 24 1023.5 - - - - - - - - -
19/09:40am 9.6 SSW 19 23 1023.4 - - - - - - - - -
19/09:30am 9.6 SSW 20 26 1023.4 - - - - - - - - -
19/09:20am 9.7 SSW 21 26 1023.2 - - - - - - - - -
19/09:10am 9.8 SSW 21 26 1023.1 - - - - - - - - -
19/09:00am 9.8 SSW 20 25 1023.0 - - - - - - - - -
19/08:50am 9.6 SSW 20 26 1022.9 - - - - - - - - -
19/08:40am 9.6 SSW 20 25 1022.8 - - - - - - - - -
19/08:30am 9.7 SSW 21 27 1022.8 - - - - - - - - -
19/08:20am 9.5 SSW 20 27 1022.7 - - - - - - - - -
19/08:10am 9.6 SSW 19 24 1022.6 - - - - - - - - -
19/08:00am 9.4 S 22 26 1022.5 - - - - - - - - -
19/07:50am 9.5 SSW 21 27 1022.3 - - - - - - - - -
19/07:40am 9.4 S 22 28 1022.2 - - - - - - - - -
19/07:30am 9.7 SSW 20 27 1022.0 - - - - - - - - -
19/07:20am 9.6 SSW 21 26 1021.9 - - - - - - - - -
19/07:10am 9.8 SSW 21 27 1021.7 - - - - - - - - -
19/07:00am 9.8 SSW 21 25 1021.5 - - - - - - - - -
19/06:50am 9.7 SSW 21 26 1021.4 - - - - - - - - -
19/06:40am 9.7 SSW 22 28 1021.2 - - - - - - - - -
19/06:30am 9.6 SSW 22 27 1021.1 - - - - - - - - -
19/06:20am 9.6 SSW 22 28 1020.8 - - - - - - - - -
19/06:10am 9.5 SSW 23 29 1020.7 - - - - - - - - -
19/06:00am 9.5 SSW 23 28 1020.5 - - - - - - - - -
19/05:50am 9.5 S 24 29 1020.3 - - - - - - - - -
19/05:40am 9.5 SSW 22 29 1020.0 - - - - - - - - -
19/05:30am 9.5 SSW 21 26 1019.8 - - - - - - - - -
19/05:20am 9.6 SSW 23 27 1019.8 - - - - - - - - -
19/05:10am 9.7 SSW 23 26 1019.6 - - - - - - - - -
19/05:00am 9.7 SSW 24 28 1019.4 - - - - - - - - -
19/04:50am 9.8 SSW 22 27 1019.2 - - - - - - - - -
19/04:40am 9.7 SSW 21 26 1019.0 - - - - - - - - -
19/04:30am 9.6 SSW 22 26 1018.8 - - - - - - - - -
19/04:20am 9.5 SSW 23 27 1018.7 - - - - - - - - -
19/04:10am 9.6 SSW 21 25 1018.6 - - - - - - - - -
19/04:00am 9.6 SSW 24 28 1018.6 - - - - - - - - -
19/03:50am 9.7 SSW 25 28 1018.6 - - - - - - - - -
19/03:40am 9.7 SSW 25 29 1018.4 - - - - - - - - -
19/03:30am 9.5 S 23 28 1018.2 - - - - - - - - -
19/03:20am 9.5 S 24 28 1018.1 - - - - - - - - -
19/03:10am 9.5 SSW 24 28 1017.9 - - - - - - - - -
19/03:00am 9.5 S 25 32 1017.8 - - - - - - - - -
19/02:50am 9.5 S 27 31 1017.7 - - - - - - - - -
19/02:40am 9.5 S 27 32 1017.6 - - - - - - - - -
19/02:30am 9.5 S 27 31 1017.5 - - - - - - - - -
19/02:20am 9.5 S 27 32 1017.4 - - - - - - - - -
19/02:10am 9.5 S 26 32 1017.2 - - - - - - - - -
19/02:00am 9.4 S 28 31 1017.2 - - - - - - - - -
19/01:50am 9.3 S 26 30 1017.1 - - - - - - - - -
19/01:40am 9.3 S 26 31 1017.0 - - - - - - - - -
19/01:30am 9.3 S 25 30 1016.9 - - - - - - - - -
19/01:20am 9.2 S 23 27 1016.6 - - - - - - - - -
19/01:10am 9.2 S 21 24 1016.4 - - - - - - - - -
19/01:00am 9.0 SSW 19 24 1016.3 - - - - - - - - -
19/12:50am 8.7 SSW 18 23 1016.2 - - - - - - - - -
19/12:40am 8.7 S 19 22 1016.1 - - - - - - - - -
19/12:30am 8.8 S 21 24 1016.1 - - - - - - - - -
19/12:20am 9.3 S 25 28 1016.1 - - - - - - - - -
19/12:10am 9.3 S 21 25 1015.9 - - - - - - - - -
19/12:00am 9.2 S 21 25 1015.7 - - - - - - - - -
 
Date/Time
EST
Temp
°C
Wind Pressure Rain since
9am
mm
Weather Cloud Vis
km
Sea
Height
m
Swell
Dir  Spd
kts
Gust
kts
hPa Trend Height
m
Period
s
Dir
18/11:50pm 9.0 S 24 29 1015.6 - - - - - - - - -
18/11:40pm 8.8 S 21 26 1015.3 - - - - - - - - -
18/11:30pm 8.9 SSW 22 27 1015.4 - - - - - - - - -
18/11:20pm 8.6 SSW 17 26 1015.2 - - - - - - - - -
18/11:10pm 8.5 SW 14 31 1015.0 - - - - - - - - -
18/11:00pm 8.3 S 21 25 1015.2 - - - - - - - - -
18/10:50pm 8.3 S 24 29 1015.0 - - - - - - - - -
18/10:40pm 8.3 S 28 32 1015.1 - - - - - - - - -
18/10:30pm 7.9 S 31 36 1015.2 - - - - - - - - -
18/10:20pm 8.7 S 33 41 1015.4 - - - - - - - - -
18/10:10pm 9.9 SSW 22 33 1014.4 - - - - - - - - -
18/10:00pm 10.5 SSW 21 32 1014.1 - - - - - - - - -
18/09:50pm 11.2 SW 31 37 1014.3 - - - - - - - - -
18/09:40pm 11.4 SW 33 38 1014.1 - - - - - - - - -
18/09:30pm 11.3 SW 32 38 1014.0 - - - - - - - - -
18/09:20pm 11.4 SW 33 38 1013.9 - - - - - - - - -
18/09:10pm 11.4 SW 33 36 1013.6 - - - - - - - - -
18/09:00pm 11.5 SW 33 39 1013.6 - - - - - - - - -
18/08:50pm 11.6 SW 35 40 1012.9 - - - - - - - - -
18/08:40pm 11.3 SW 32 37 1013.0 - - - - - - - - -
18/08:30pm 11.4 SW 32 36 1012.7 - - - - - - - - -
18/08:20pm 11.3 SW 33 38 1012.6 - - - - - - - - -
18/08:10pm 10.8 SW 33 40 1013.1 - - - - - - - - -
18/08:00pm 11.3 SW 36 41 1012.5 - - - - - - - - -
18/07:50pm 11.2 SW 33 38 1011.9 - - - - - - - - -
18/07:40pm 10.7 SW 31 43 1012.3 - - - - - - - - -
18/07:30pm 11.0 SW 36 47 1012.1 - - - - - - - - -
18/07:20pm 10.4 SW 25 36 1011.3 - - - - - - - - -
18/07:10pm 10.2 WSW 26 32 1011.1 - - - - - - - - -
18/07:00pm 10.7 SW 35 46 1012.2 - - - - - - - - -
18/06:50pm 11.7 WSW 33 44 1010.5 - - - - - - - - -
18/06:40pm 11.8 SW 32 41 1010.4 - - - - - - - - -
18/06:30pm 11.9 SW 31 35 1010.5 - - - - - - - - -
18/06:20pm 11.9 SW 32 38 1010.8 - - - - - - - - -
18/06:10pm 11.9 SW 35 40 1010.9 - - - - - - - - -
18/06:00pm 12.0 SW 32 37 1010.1 - - - - - - - - -
18/05:50pm 11.9 SW 30 36 1010.1 - - - - - - - - -
18/05:40pm 11.9 SW 31 37 1010.3 - - - - - - - - -
18/05:30pm 11.9 SW 32 38 1010.4 - - - - - - - - -
18/05:20pm 11.9 SW 33 38 1009.8 - - - - - - - - -
18/05:10pm 11.9 SW 32 38 1009.5 - - - - - - - - -
18/05:00pm 11.9 SW 33 38 1009.4 - - - - - - - - -
18/04:50pm 12.0 SW 33 41 1009.1 - - - - - - - - -
18/04:40pm 12.0 SW 33 39 1008.9 - - - - - - - - -
18/04:30pm 12.0 SW 32 39 1008.8 - - - - - - - - -
18/04:20pm 12.0 SW 31 37 1008.6 - - - - - - - - -
18/04:10pm 11.9 SW 31 38 1008.0 - - - - - - - - -
18/04:00pm 11.7 SW 32 38 1007.4 - - - - - - - - -
18/03:50pm 11.7 SW 32 41 1007.3 - - - - - - - - -
18/03:40pm 11.7 SW 33 41 1007.3 - - - - - - - - -
18/03:30pm 11.8 WSW 31 39 1006.4 - - - - - - - - -
18/03:20pm 11.6 WSW 33 42 1006.0 - - - - - - - - -
18/03:10pm 11.0 WSW 31 41 1006.3 - - - - - - - - -
18/03:00pm 11.5 WSW 35 49 1005.7 - - - - - - - - -
18/02:50pm 11.4 W 33 38 1005.5 - - - - - - - - -
18/02:40pm 11.4 W 34 42 1005.4 - - - - - - - - -
18/02:30pm 11.4 W 32 41 1005.5 - - - - - - - - -
18/02:20pm 11.4 W 36 44 1005.1 - - - - - - - - -
18/02:10pm 11.2 W 35 42 1005.0 - - - - - - - - -
18/02:00pm 11.2 W 34 41 1004.9 - - - - - - - - -
18/01:50pm 11.2 W 35 40 1004.8 - - - - - - - - -
18/01:40pm 11.2 W 36 41 1004.6 - - - - - - - - -
18/01:30pm 11.2 W 35 42 1004.4 - - - - - - - - -
18/01:20pm 10.9 W 35 41 1004.4 - - - - - - - - -
18/01:10pm 10.8 W 34 40 1004.4 - - - - - - - - -
18/01:00pm 11.2 W 34 41 1004.4 - - - - - - - - -
18/12:50pm 11.5 W 33 41 1004.0 - - - - - - - - -
18/12:40pm 11.2 W 31 38 1004.1 - - - - - - - - -
18/12:30pm 11.2 W 34 41 1004.0 - - - - - - - - -
18/12:20pm 11.3 W 33 39 1004.2 - - - - - - - - -
18/12:10pm 11.3 W 30 34 1004.2 - - - - - - - - -
18/12:00pm 10.9 W 28 33 1004.3 - - - - - - - - -
18/11:50am 10.8 W 31 35 1004.3 - - - - - - - - -
18/11:40am 11.1 W 33 37 1004.2 - - - - - - - - -
18/11:30am 11.5 W 32 37 1004.1 - - - - - - - - -
18/11:20am 11.6 W 31 37 1003.9 - - - - - - - - -
18/11:10am 11.5 W 33 37 1003.6 - - - - - - - - -
18/11:00am 11.6 W 31 35 1003.6 - - - - - - - - -
18/10:50am 11.5 W 32 38 1003.5 - - - - - - - - -
18/10:40am 11.2 W 33 38 1003.6 - - - - - - - - -
18/10:30am 11.0 W 33 38 1003.9 - - - - - - - - -
18/10:20am 11.1 W 31 39 1003.9 - - - - - - - - -
18/10:10am 11.0 W 32 38 1003.9 - - - - - - - - -
18/10:00am 10.8 W 30 36 1003.7 - - - - - - - - -
18/09:50am 10.6 W 31 38 1003.7 - - - - - - - - -
18/09:40am 10.5 W 31 37 1003.7 - - - - - - - - -
18/09:30am 10.4 W 32 37 1003.7 - - - - - - - - -
18/09:20am 10.5 W 32 38 1003.4 - - - - - - - - -
18/09:10am 10.5 W 33 39 1003.2 - - - - - - - - -
18/09:00am 10.5 W 34 40 1003.0 - - - - - - - - -
18/08:50am 10.5 W 33 39 1003.2 - - - - - - - - -
18/08:40am 10.4 W 38 44 1002.8 - - - - - - - - -
18/08:30am 10.3 W 36 43 1002.7 - - - - - - - - -
18/08:20am 10.2 W 36 40 1002.7 - - - - - - - - -
18/08:10am 10.4 W 36 44 1002.5 - - - - - - - - -
18/08:00am 10.1 W 38 46 1002.3 - - - - - - - - -
18/07:50am 9.0 WSW 26 42 1003.3 - - - - - - - - -
18/07:40am 9.2 SW 27 36 1003.8 - - - - - - - - -
18/07:30am 10.0 SW 30 40 1003.3 - - - - - - - - -
18/07:20am 11.0 W 36 44 1002.1 - - - - - - - - -
18/07:10am 10.6 W 36 43 1001.8 - - - - - - - - -
18/07:00am 10.5 W 36 41 1001.8 - - - - - - - - -
18/06:50am 10.5 W 32 38 1001.8 - - - - - - - - -
18/06:40am 10.2 W 32 38 1001.6 - - - - - - - - -
18/06:30am 9.9 W 32 38 1001.5 - - - - - - - - -
18/06:20am 10.1 W 34 43 1001.4 - - - - - - - - -
18/06:10am 9.8 W 28 34 1001.6 - - - - - - - - -
18/06:00am 9.7 W 28 34 1001.3 - - - - - - - - -
18/05:50am 9.5 WSW 30 36 1001.0 - - - - - - - - -
18/05:40am 9.2 WSW 30 35 1000.9 - - - - - - - - -
18/05:30am 9.3 WSW 32 39 1001.0 - - - - - - - - -
18/05:20am 9.6 WSW 34 40 1001.0 - - - - - - - - -
18/05:10am 9.6 WSW 30 34 1000.9 - - - - - - - - -
18/05:00am 9.9 WSW 31 36 1001.1 - - - - - - - - -
18/04:50am 10.6 WSW 33 39 1000.9 - - - - - - - - -
18/04:40am 11.5 W 34 41 1000.3 - - - - - - - - -
18/04:30am 11.5 W 32 41 1000.4 - - - - - - - - -
18/04:20am 11.5 W 30 37 1000.4 - - - - - - - - -
18/04:10am 11.5 W 31 37 1000.4 - - - - - - - - -
18/04:00am 11.5 W 31 39 1000.3 - - - - - - - - -
18/03:50am 11.5 W 33 41 1000.2 - - - - - - - - -
18/03:40am 11.5 W 32 37 1000.2 - - - - - - - - -
18/03:30am 11.5 W 31 36 1000.2 - - - - - - - - -
18/03:20am 11.5 W 31 36 1000.1 - - - - - - - - -
18/03:10am 11.4 W 31 37 1000.3 - - - - - - - - -
18/03:00am 11.4 W 34 39 1000.0 - - - - - - - - -
18/02:40am 11.4 W 34 37 999.9 - - - - - - - - -
18/02:30am 11.4 W 32 38 999.9 - - - - - - - - -
18/02:20am 11.4 W 32 39 999.8 - - - - - - - - -
18/02:10am 11.4 W 31 37 999.8 - - - - - - - - -
18/02:00am 11.3 W 34 39 999.6 - - - - - - - - -
18/01:50am 11.5 W 32 40 999.7 - - - - - - - - -
18/01:40am 11.3 W 33 39 999.7 - - - - - - - - -
18/01:30am 11.2 W 29 34 999.9 - - - - - - - - -
18/01:20am 10.9 W 28 34 1000.0 - - - - - - - - -
18/01:10am 11.0 W 25 29 1000.2 - - - - - - - - -
18/01:00am 11.0 W 27 32 1000.2 - - - - - - - - -
18/12:50am 10.8 W 25 30 1000.1 - - - - - - - - -
18/12:30am 10.8 WSW 28 34 999.8 - - - - - - - - -
18/12:20am 11.3 W 34 42 999.7 - - - - - - - - -
18/12:00am 11.6 W 34 40 1000.2 - - - - - - - - -
 
Date/Time
EST
Temp
°C
Wind Pressure Rain since
9am
mm
Weather Cloud Vis
km
Sea
Height
m
Swell
Dir  Spd
kts
Gust
kts
hPa Trend Height
m
Period
s
Dir
17/11:50pm 11.7 W 34 42 1000.2 - - - - - - - - -
17/11:40pm 11.7 W 34 39 1000.3 - - - - - - - - -
17/11:30pm 11.7 W 33 40 1000.3 - - - - - - - - -
17/11:20pm 11.8 W 35 41 1000.3 - - - - - - - - -
17/11:10pm 11.9 W 33 40 1000.3 - - - - - - - - -
17/11:00pm 11.7 W 33 40 1000.4 - - - - - - - - -
17/10:50pm 11.7 W 33 39 1000.3 - - - - - - - - -
17/10:40pm 11.7 W 34 41 1000.3 - - - - - - - - -
17/10:30pm 11.7 W 32 38 1000.4 - - - - - - - - -
17/10:20pm 11.7 WNW 34 40 1000.3 - - - - - - - - -
17/10:10pm 11.7 WNW 33 40 1000.3 - - - - - - - - -
17/10:00pm 11.7 W 31 38 1000.4 - - - - - - - - -
17/09:50pm 11.8 W 34 39 1000.3 - - - - - - - - -

Other Formats:

Comma delimited format used in spreadsheet applications
http://www.bom.gov.au/fwo/IDV60701/IDV60701.55039.axf

JavaScript Object Notation format (JSON) in row-major order
http://www.bom.gov.au/fwo/IDV60701/IDV60701.55039.json